Time;durP1;ratioP1;P1;durP2;ratioP2;P2;SDS_P1;SDS_P2;PMS_P1;PMS_P2;Temp;Humidity;BMP_temperature;BMP_pressure;BME280_temperature;BME280_humidity;BME280_pressure;Samples;Min_cycle;Max_cycle;Signal;HPM_P1;HPM_P2
2022/10/05 00:00:46;;;;;;;7.47;6.03;;;14.20;1.00;;;;;;5034204;28;20402;-67
2022/10/05 00:03:11;;;;;;;10.50;6.50;;;14.20;1.00;;;;;;5034272;28;20752;-72
2022/10/05 00:05:38;;;;;;;7.10;6.30;;;14.20;1.00;;;;;;5033381;28;20509;-71
2022/10/05 00:08:09;;;;;;;7.27;6.27;;;14.20;1.00;;;;;;5033805;28;20655;-71
2022/10/05 00:10:35;;;;;;;12.33;7.80;;;14.20;1.00;;;;;;5033593;28;20377;-71
2022/10/05 00:13:01;;;;;;;8.40;6.70;;;14.10;1.00;;;;;;5033870;28;20420;-71
2022/10/05 00:15:27;;;;;;;9.43;6.20;;;14.10;1.00;;;;;;5033227;28;20527;-72
2022/10/05 00:17:54;;;;;;;7.60;6.70;;;14.10;1.00;;;;;;5033853;28;20604;-67
2022/10/05 00:20:25;;;;;;;12.23;7.50;;;14.10;1.00;;;;;;5033710;28;20406;-72
2022/10/05 00:23:00;;;;;;;7.83;6.70;;;14.10;1.00;;;;;;5033926;28;20921;-70
2022/10/05 00:25:26;;;;;;;8.87;6.93;;;14.10;1.00;;;;;;5033015;28;20757;-71
2022/10/05 00:27:57;;;;;;;9.80;7.43;;;14.10;1.00;;;;;;5033249;28;20406;-72
2022/10/05 00:30:25;;;;;;;9.97;7.17;;;14.10;1.00;;;;;;5032359;28;20171;-66
2022/10/05 00:32:51;;;;;;;10.13;7.30;;;14.10;1.00;;;;;;5032274;28;20460;-72
2022/10/05 00:35:18;;;;;;;13.87;7.53;;;14.10;1.00;;;;;;5032909;28;20422;-71
2022/10/05 00:37:45;;;;;;;8.77;6.50;;;14.10;1.00;;;;;;5033627;28;20887;-66
2022/10/05 00:40:35;;;;;;;9.43;7.07;;;14.10;1.00;;;;;;5033339;28;20387;-68
2022/10/05 00:43:06;;;;;;;10.20;6.57;;;14.20;1.00;;;;;;5033632;28;20394;-66
2022/10/05 00:45:40;;;;;;;11.87;7.33;;;14.20;1.00;;;;;;5032433;28;20447;-66
2022/10/05 00:48:31;;;;;;;11.33;6.53;;;14.20;1.00;;;;;;5033396;28;20394;-71
2022/10/05 00:51:12;;;;;;;12.60;6.90;;;14.20;1.00;;;;;;5033585;28;20398;-72
2022/10/05 00:53:55;;;;;;;9.70;6.03;;;14.20;1.00;;;;;;5031391;28;20544;-67
2022/10/05 00:56:33;;;;;;;8.50;6.57;;;14.20;1.00;;;;;;5033184;28;20422;-67
2022/10/05 00:59:08;;;;;;;12.03;6.77;;;14.20;1.00;;;;;;5033411;28;20429;-66
2022/10/05 01:01:46;;;;;;;11.70;6.90;;;14.20;1.00;;;;;;5033419;28;20422;-72
2022/10/05 01:04:24;;;;;;;17.53;7.77;;;14.20;1.00;;;;;;5032262;28;20838;-72
2022/10/05 01:07:03;;;;;;;10.43;6.57;;;14.20;1.00;;;;;;5033157;28;20426;-67
2022/10/05 01:10:01;;;;;;;9.70;6.70;;;14.20;1.00;;;;;;5033431;28;20394;-67
2022/10/05 01:12:44;;;;;;;9.43;6.80;;;14.20;1.00;;;;;;5035795;28;20978;-71
2022/10/05 01:15:38;;;;;;;10.97;7.60;;;14.20;1.00;;;;;;5035227;28;20438;-72
2022/10/05 01:18:03;;;;;;;11.43;7.13;;;14.20;1.00;;;;;;5035949;28;20406;-72
2022/10/05 01:20:55;;;;;;;13.33;7.43;;;14.20;1.00;;;;;;5035777;28;20406;-71
2022/10/05 01:23:24;;;;;;;8.30;7.20;;;14.20;1.00;;;;;;5036534;28;20527;-71
2022/10/05 01:26:08;;;;;;;7.83;7.03;;;14.20;1.00;;;;;;5036469;28;20461;-66
2022/10/05 01:28:43;;;;;;;12.07;7.60;;;14.20;1.00;;;;;;5036911;28;20840;-71
2022/10/05 01:31:10;;;;;;;11.40;7.67;;;14.30;1.00;;;;;;5037062;28;20405;-71
2022/10/05 01:33:44;;;;;;;9.77;7.10;;;14.30;1.00;;;;;;5036291;28;20449;-73
2022/10/05 01:36:31;;;;;;;11.20;6.77;;;14.30;1.00;;;;;;5036747;28;20476;-67
2022/10/05 01:38:59;;;;;;;11.30;7.13;;;14.20;1.00;;;;;;5036782;28;20940;-71
2022/10/05 01:41:39;;;;;;;9.50;6.93;;;14.20;1.00;;;;;;5036308;28;20408;-70
2022/10/05 01:44:19;;;;;;;12.60;6.80;;;14.20;1.00;;;;;;5036185;28;20405;-70
2022/10/05 01:46:55;;;;;;;12.97;7.10;;;14.30;1.00;;;;;;5036572;28;20426;-66
2022/10/05 01:49:39;;;;;;;9.83;6.50;;;14.30;1.00;;;;;;5036628;28;20379;-72
2022/10/05 01:52:24;;;;;;;11.27;7.97;;;14.30;1.00;;;;;;5036475;28;20416;-66
2022/10/05 01:54:58;;;;;;;10.10;7.90;;;14.20;1.00;;;;;;5035706;28;20748;-71
2022/10/05 01:57:39;;;;;;;14.30;8.20;;;14.20;1.00;;;;;;5035286;28;20402;-66
2022/10/05 02:00:14;;;;;;;13.83;7.90;;;14.20;1.00;;;;;;5036060;28;20409;-71
2022/10/05 02:03:05;;;;;;;10.80;7.63;;;14.20;1.00;;;;;;5035725;28;20407;-69
2022/10/05 02:05:55;;;;;;;9.50;7.13;;;14.20;1.00;;;;;;5034352;28;20451;-66
2022/10/05 02:08:25;;;;;;;9.77;6.40;;;14.20;1.00;;;;;;5034116;28;20414;-66
2022/10/05 02:11:14;;;;;;;13.43;6.60;;;14.20;1.00;;;;;;5035027;28;20402;-71
2022/10/05 02:13:49;;;;;;;13.70;7.80;;;14.20;1.00;;;;;;5034341;28;20453;-71
2022/10/05 02:16:35;;;;;;;10.13;7.60;;;14.20;1.00;;;;;;5034503;28;20388;-66
2022/10/05 02:19:28;;;;;;;9.20;6.63;;;14.20;1.00;;;;;;5034812;28;20410;-72
2022/10/05 02:22:09;;;;;;;8.73;7.07;;;14.20;1.00;;;;;;5034557;28;20490;-71
2022/10/05 02:25:02;;;;;;;10.80;7.43;;;14.10;1.00;;;;;;5034216;28;20388;-71
2022/10/05 02:27:33;;;;;;;10.27;7.17;;;14.20;1.00;;;;;;5035101;28;20410;-71
2022/10/05 02:30:05;;;;;;;9.40;7.20;;;14.20;1.00;;;;;;5034853;28;20513;-66
2022/10/05 02:32:41;;;;;;;13.90;8.87;;;14.20;1.00;;;;;;5033244;28;20496;-67
2022/10/05 02:35:16;;;;;;;11.90;7.00;;;14.30;1.00;;;;;;5033576;28;20910;-67
2022/10/05 02:38:08;;;;;;;13.60;7.53;;;14.30;1.00;;;;;;5034618;28;20401;-66
2022/10/05 02:40:42;;;;;;;9.43;6.60;;;14.30;1.00;;;;;;5034560;28;20418;-71
2022/10/05 02:43:19;;;;;;;8.60;6.80;;;14.30;1.00;;;;;;5034385;28;20406;-67
2022/10/05 02:45:48;;;;;;;10.77;6.93;;;14.20;1.00;;;;;;5033874;28;20415;-67
2022/10/05 02:48:49;;;;;;;13.00;7.37;;;14.20;1.00;;;;;;5034585;28;20759;-66
2022/10/05 02:51:23;;;;;;;7.00;6.20;;;14.20;1.00;;;;;;5031685;28;20414;-72
2022/10/05 02:53:59;;;;;;;15.63;6.67;;;14.20;1.00;;;;;;5033519;28;20462;-66
2022/10/05 02:56:33;;;;;;;9.70;7.00;;;14.30;1.00;;;;;;5034318;28;20429;-66
2022/10/05 02:59:05;;;;;;;7.60;6.23;;;14.30;1.00;;;;;;5034479;28;20373;-70
2022/10/05 03:04:53;;;;;;;10.90;7.17;;;14.20;1.00;;;;;;5110581;27;20537;-66
2022/10/05 03:07:35;;;;;;;8.67;6.97;;;14.20;1.00;;;;;;5089312;28;20379;-69
2022/10/05 03:10:22;;;;;;;9.07;8.10;;;14.20;1.00;;;;;;5090952;28;20370;-71
2022/10/05 03:13:24;;;;;;;15.23;6.73;;;14.20;1.00;;;;;;5090865;28;20894;-70
2022/10/05 03:16:21;;;;;;;9.93;7.67;;;14.20;1.00;;;;;;5071092;28;20435;-66
2022/10/05 03:19:25;;;;;;;7.20;6.50;;;14.20;1.00;;;;;;5090736;28;20451;-70
2022/10/05 03:22:14;;;;;;;9.23;7.17;;;14.20;1.00;;;;;;5056617;28;20756;-70
2022/10/05 03:24:45;;;;;;;13.13;7.80;;;14.20;1.00;;;;;;5088912;28;20426;-72
2022/10/05 03:27:19;;;;;;;17.77;7.47;;;14.30;1.00;;;;;;5090175;28;20375;-66
2022/10/05 03:30:05;;;;;;;9.80;7.47;;;14.30;1.00;;;;;;5090505;28;20395;-66
2022/10/05 03:32:43;;;;;;;8.80;7.17;;;14.20;1.00;;;;;;5090392;28;20457;-66
2022/10/05 03:35:20;;;;;;;8.83;6.87;;;14.20;1.00;;;;;;5088556;28;20533;-66
2022/10/05 03:37:54;;;;;;;9.83;6.63;;;14.20;1.00;;;;;;5090266;28;20418;-65
2022/10/05 03:40:24;;;;;;;8.67;6.77;;;14.20;1.00;;;;;;5090332;28;20411;-66
2022/10/05 03:43:16;;;;;;;13.60;9.00;;;14.20;1.00;;;;;;5090063;28;20447;-66
2022/10/05 03:45:56;;;;;;;12.40;7.77;;;14.10;1.00;;;;;;5088138;28;20504;-66
2022/10/05 03:48:51;;;;;;;10.33;7.77;;;14.20;1.00;;;;;;5090172;28;20427;-66
2022/10/05 03:51:26;;;;;;;9.60;7.93;;;14.10;1.00;;;;;;5089219;28;20883;-66
2022/10/05 03:53:58;;;;;;;8.90;7.57;;;14.10;1.00;;;;;;5089456;28;20382;-71
2022/10/05 03:56:39;;;;;;;9.60;6.63;;;14.20;1.00;;;;;;5090043;28;20951;-70
2022/10/05 03:59:38;;;;;;;13.20;6.90;;;14.20;1.00;;;;;;5090097;28;20879;-66
2022/10/05 04:02:06;;;;;;;12.93;7.20;;;14.30;1.00;;;;;;5063533;28;20511;-72
2022/10/05 04:04:44;;;;;;;8.77;7.03;;;14.20;1.00;;;;;;5089440;28;20382;-66
2022/10/05 04:07:35;;;;;;;10.10;7.00;;;14.20;1.00;;;;;;5090000;28;20403;-66
2022/10/05 04:10:04;;;;;;;9.20;8.10;;;14.20;1.00;;;;;;5089799;28;20396;-66
2022/10/05 04:12:38;;;;;;;10.77;8.60;;;14.20;1.00;;;;;;5089788;28;20414;-71
2022/10/05 04:15:28;;;;;;;10.60;7.77;;;14.20;1.00;;;;;;5077449;28;20442;-65
2022/10/05 04:18:01;;;;;;;11.03;8.00;;;14.20;1.00;;;;;;5076105;28;20405;-66
2022/10/05 04:20:45;;;;;;;11.43;8.23;;;14.20;1.00;;;;;;5075704;28;20415;-65
2022/10/05 04:23:32;;;;;;;12.43;8.23;;;14.10;1.00;;;;;;5075961;28;20584;-71
2022/10/05 04:26:10;;;;;;;14.30;7.90;;;14.10;1.00;;;;;;5075427;28;20434;-71
2022/10/05 04:28:54;;;;;;;9.93;7.87;;;14.10;1.00;;;;;;5074680;28;20419;-66
2022/10/05 04:31:41;;;;;;;9.10;7.60;;;14.10;1.00;;;;;;5075867;28;20821;-67
2022/10/05 04:34:42;;;;;;;9.70;8.30;;;14.10;1.00;;;;;;5075014;28;20420;-71
2022/10/05 04:37:18;;;;;;;9.20;6.90;;;14.10;1.00;;;;;;5075288;28;20438;-66
2022/10/05 04:39:46;;;;;;;9.50;7.60;;;14.10;1.00;;;;;;5075622;28;20415;-72
2022/10/05 04:42:42;;;;;;;9.80;7.40;;;14.10;1.00;;;;;;5075388;28;20440;-66
2022/10/05 04:45:21;;;;;;;14.50;8.80;;;14.10;1.00;;;;;;5063907;28;20448;-71
2022/10/05 04:48:12;;;;;;;9.97;7.77;;;14.10;1.00;;;;;;5074278;28;20431;-68
2022/10/05 04:51:00;;;;;;;7.27;6.40;;;14.10;1.00;;;;;;5074182;28;20416;-66
2022/10/05 04:53:49;;;;;;;12.30;8.40;;;14.10;1.00;;;;;;5075159;28;20436;-69
2022/10/05 04:56:33;;;;;;;10.60;7.77;;;14.00;1.00;;;;;;5074091;28;20998;-66
2022/10/05 04:59:07;;;;;;;11.60;8.23;;;14.00;1.00;;;;;;5075371;28;20400;-73
2022/10/05 05:01:51;;;;;;;11.30;7.80;;;14.00;1.00;;;;;;5075453;28;20901;-71
2022/10/05 05:04:40;;;;;;;11.20;9.17;;;14.00;1.00;;;;;;5074321;28;20968;-75
2022/10/05 05:07:28;;;;;;;14.50;7.17;;;14.00;1.00;;;;;;5075561;28;20950;-74
2022/10/05 05:10:31;;;;;;;10.50;7.83;;;14.10;1.00;;;;;;5074899;28;20458;-68
2022/10/05 05:13:08;;;;;;;13.83;8.40;;;14.00;1.00;;;;;;5075186;28;20888;-68
2022/10/05 05:15:46;;;;;;;15.63;7.83;;;14.00;1.00;;;;;;5074343;28;20511;-70
2022/10/05 05:18:44;;;;;;;14.50;8.97;;;14.00;1.00;;;;;;5074007;28;20408;-70
2022/10/05 05:21:28;;;;;;;12.43;8.00;;;14.00;1.00;;;;;;5033296;28;20428;-65
2022/10/05 05:24:26;;;;;;;15.10;8.27;;;14.00;1.00;;;;;;5074084;28;20484;-69
2022/10/05 05:27:14;;;;;;;12.57;9.33;;;14.00;1.00;;;;;;5073453;28;20519;-70
2022/10/05 05:30:12;;;;;;;11.30;8.00;;;14.00;1.00;;;;;;5073405;28;20383;-66
2022/10/05 05:32:44;;;;;;;13.00;7.70;;;14.10;1.00;;;;;;5074588;28;20396;-69
2022/10/05 05:35:27;;;;;;;10.03;7.50;;;14.00;1.00;;;;;;5073915;28;20417;-66
2022/10/05 05:38:08;;;;;;;11.30;7.90;;;14.00;1.00;;;;;;5074592;28;20396;-70
2022/10/05 05:40:41;;;;;;;11.03;7.27;;;14.00;1.00;;;;;;5074367;28;20412;-73
2022/10/05 05:43:39;;;;;;;10.00;8.23;;;14.00;1.00;;;;;;5074335;28;20456;-71
2022/10/05 05:46:15;;;;;;;11.40;8.20;;;14.00;1.00;;;;;;5072541;28;20433;-65
2022/10/05 05:48:44;;;;;;;9.67;7.87;;;14.00;1.00;;;;;;5072871;28;20421;-72
2022/10/05 05:51:31;;;;;;;16.33;8.53;;;13.90;1.00;;;;;;5073143;28;20409;-72
2022/10/05 05:54:06;;;;;;;14.37;8.00;;;13.90;1.00;;;;;;5089449;28;20558;-65
2022/10/05 05:56:37;;;;;;;8.93;7.60;;;13.90;1.00;;;;;;5074195;28;20493;-71
2022/10/05 05:59:13;;;;;;;12.43;8.33;;;13.90;1.00;;;;;;5074048;28;20386;-72
2022/10/05 06:01:47;;;;;;;20.20;8.73;;;13.90;1.00;;;;;;5072841;28;20499;-64
2022/10/05 06:04:27;;;;;;;12.60;7.17;;;13.80;1.00;;;;;;5072866;28;20438;-72
2022/10/05 06:06:56;;;;;;;9.30;7.97;;;13.80;1.00;;;;;;5073797;28;20431;-72
2022/10/05 06:09:33;;;;;;;13.70;7.80;;;13.80;1.00;;;;;;5073971;28;20851;-72
2022/10/05 06:12:15;;;;;;;12.13;9.10;;;13.80;1.00;;;;;;5073945;28;20401;-72
2022/10/05 06:14:56;;;;;;;11.97;7.70;;;13.80;1.00;;;;;;5073071;28;20875;-66
2022/10/05 06:17:36;;;;;;;12.67;8.37;;;13.90;1.00;;;;;;5073889;28;20468;-71
2022/10/05 06:20:08;;;;;;;14.63;8.70;;;13.90;9.50;;;;;;5073365;28;20412;-68
2022/10/05 06:22:38;;;;;;;9.57;7.63;;;13.90;1.00;;;;;;5073737;28;20856;-72
2022/10/05 06:25:04;;;;;;;9.53;8.30;;;13.90;1.00;;;;;;5071910;28;20479;-65
2022/10/05 06:27:59;;;;;;;16.37;7.90;;;13.90;1.00;;;;;;5073715;28;20897;-64
2022/10/05 06:30:34;;;;;;;10.67;7.80;;;14.00;1.00;;;;;;5061735;28;20174;-71
2022/10/05 06:33:06;;;;;;;12.20;8.00;;;14.00;1.00;;;;;;5073510;28;20780;-67
2022/10/05 06:35:52;;;;;;;9.93;7.83;;;14.00;1.00;;;;;;5072848;28;20924;-67
2022/10/05 06:38:21;;;;;;;8.37;7.53;;;14.00;1.00;;;;;;5071598;28;20394;-71
2022/10/05 06:41:05;;;;;;;9.90;7.87;;;14.00;1.00;;;;;;5073512;28;20387;-71
2022/10/05 06:43:36;;;;;;;9.13;7.60;;;14.00;1.00;;;;;;5072008;28;20433;-69
2022/10/05 06:46:24;;;;;;;12.80;8.43;;;14.00;1.00;;;;;;5073364;28;20417;-66
2022/10/05 06:49:31;;;;;;;15.80;9.00;;;14.00;1.00;;;;;;5072262;28;20641;-71
2022/10/05 06:52:37;;;;;;;9.10;7.43;;;14.00;1.00;;;;;;5049679;28;20426;-72
2022/10/05 06:55:21;;;;;;;12.27;7.97;;;14.10;1.00;;;;;;5010222;28;20813;-71
2022/10/05 06:58:14;;;;;;;16.70;8.57;;;14.10;1.00;;;;;;5070614;28;20470;-67
2022/10/05 07:00:52;;;;;;;10.80;7.40;;;14.20;1.00;;;;;;5073601;28;20901;-71
2022/10/05 07:03:45;;;;;;;14.13;7.80;;;14.20;1.00;;;;;;5072977;28;20484;-71
2022/10/05 07:06:38;;;;;;;9.83;7.20;;;14.20;1.00;;;;;;5073402;28;20421;-72
2022/10/05 07:09:29;;;;;;;9.77;7.07;;;14.20;1.00;;;;;;5067183;28;20422;-68
2022/10/05 07:12:18;;;;;;;11.53;7.90;;;14.30;1.00;;;;;;5073169;28;20462;-67
2022/10/05 07:15:19;;;;;;;9.37;7.27;;;14.30;1.00;;;;;;5070804;28;20420;-67
2022/10/05 07:18:11;;;;;;;9.67;7.40;;;14.30;1.90;;;;;;5073316;28;20938;-71
2022/10/05 07:20:54;;;;;;;9.37;6.70;;;14.40;1.00;;;;;;5071836;28;20478;-67
2022/10/05 07:23:49;;;;;;;7.70;6.37;;;14.30;1.00;;;;;;5072969;28;20470;-67
2022/10/05 07:26:30;;;;;;;9.60;7.03;;;14.40;1.60;;;;;;5071985;28;20440;-67
2022/10/05 07:29:22;;;;;;;12.93;8.60;;;14.40;1.00;;;;;;5073074;28;20392;-72
2022/10/05 07:32:09;;;;;;;9.63;7.40;;;14.50;1.00;;;;;;5072813;28;20386;-67
2022/10/05 07:35:00;;;;;;;9.87;7.00;;;14.60;1.00;;;;;;5071147;28;20965;-71
2022/10/05 07:40:27;;;;;;;10.03;7.30;;;14.70;1.00;;;;;;5072976;28;20499;-66
2022/10/05 07:43:13;;;;;;;12.93;7.53;;;14.70;1.00;;;;;;5072871;28;20956;-67
2022/10/05 07:45:38;;;;;;;12.20;7.10;;;14.70;1.00;;;;;;5072065;28;20497;-67
2022/10/05 07:48:46;;;;;;;15.93;8.73;;;14.80;1.00;;;;;;5071584;28;20916;-72
2022/10/05 07:51:33;;;;;;;11.80;8.00;;;14.80;1.00;;;;;;5052878;28;20633;-72
2022/10/05 07:53:58;;;;;;;11.00;7.87;;;15.00;1.00;;;;;;5075598;28;20904;-65
2022/10/05 07:56:39;;;;;;;16.27;8.60;;;15.10;8.10;;;;;;5076436;28;20434;-67
2022/10/05 07:59:13;;;;;;;11.00;7.73;;;15.20;1.00;;;;;;5076436;28;20174;-71
2022/10/05 08:01:45;;;;;;;13.80;7.47;;;15.10;1.00;;;;;;5076782;28;20440;-71
2022/10/05 08:04:21;;;;;;;12.20;7.87;;;15.20;1.00;;;;;;5075618;28;20855;-66
2022/10/05 08:07:03;;;;;;;10.93;7.13;;;15.00;1.00;;;;;;5076308;28;20416;-67
2022/10/05 08:09:35;;;;;;;10.23;8.53;;;15.10;3.90;;;;;;5074776;28;20404;-73
2022/10/05 08:12:17;;;;;;;8.60;7.23;;;15.00;1.00;;;;;;5076319;28;20372;-67
2022/10/05 08:14:55;;;;;;;8.67;7.70;;;15.20;1.00;;;;;;5075578;28;20398;-69
2022/10/05 08:17:59;;;;;;;9.23;7.37;;;15.10;1.00;;;;;;5076094;28;20400;-72
2022/10/05 08:20:46;;;;;;;8.73;7.80;;;15.10;1.00;;;;;;5076236;28;20401;-65
2022/10/05 08:23:24;;;;;;;12.93;8.27;;;15.20;1.00;;;;;;5076001;28;20452;-67
2022/10/05 08:26:14;;;;;;;9.90;6.93;;;15.30;1.00;;;;;;5075149;28;20503;-68
2022/10/05 08:29:02;;;;;;;13.10;7.53;;;15.30;1.00;;;;;;5074515;28;20932;-65
2022/10/05 08:31:37;;;;;;;9.30;8.03;;;15.40;1.00;;;;;;5075985;28;20396;-72
2022/10/05 08:34:11;;;;;;;11.33;8.03;;;15.40;2.20;;;;;;5073764;28;20828;-71
2022/10/05 08:36:55;;;;;;;10.63;8.80;;;15.40;1.00;;;;;;5074671;28;20424;-71
2022/10/05 08:39:25;;;;;;;13.27;7.50;;;15.50;1.00;;;;;;5075736;28;20496;-67
2022/10/05 08:42:29;;;;;;;13.70;8.70;;;15.60;1.00;;;;;;5075619;28;20472;-71
2022/10/05 08:45:19;;;;;;;11.87;8.80;;;15.70;1.00;;;;;;5074682;28;20452;-69
2022/10/05 08:47:56;;;;;;;11.10;8.00;;;15.80;1.00;;;;;;5075472;28;20901;-71
2022/10/05 08:50:48;;;;;;;12.63;8.20;;;15.90;1.00;;;;;;5075452;28;20449;-71
2022/10/05 08:53:20;;;;;;;11.07;7.60;;;15.90;1.00;;;;;;5075607;28;20400;-69
2022/10/05 08:56:03;;;;;;;11.50;8.43;;;16.00;1.00;;;;;;5074824;28;20416;-72
2022/10/05 08:58:47;;;;;;;9.10;7.50;;;15.90;1.00;;;;;;5075345;28;20415;-71
2022/10/05 09:01:17;;;;;;;12.07;7.67;;;15.90;1.00;;;;;;5075317;28;20393;-67
2022/10/05 09:04:10;;;;;;;10.67;7.53;;;15.90;1.00;;;;;;5072202;28;20541;-65
2022/10/05 09:07:03;;;;;;;13.30;8.63;;;15.90;1.00;;;;;;5075292;28;20424;-67
2022/10/05 09:09:48;;;;;;;12.17;7.80;;;15.90;1.00;;;;;;5075064;28;20396;-67
2022/10/05 09:12:50;;;;;;;10.33;8.30;;;15.90;1.00;;;;;;5074634;28;20408;-68
2022/10/05 09:15:53;;;;;;;8.50;7.30;;;15.90;1.00;;;;;;5072661;28;20420;-67
2022/10/05 09:18:55;;;;;;;10.87;7.13;;;16.00;1.00;;;;;;5074589;28;20407;-72
2022/10/05 09:21:41;;;;;;;8.90;7.57;;;15.90;1.00;;;;;;5073247;28;20404;-68
2022/10/05 09:24:45;;;;;;;12.80;8.23;;;15.90;1.00;;;;;;5073721;28;20860;-71
2022/10/05 09:27:18;;;;;;;13.63;7.50;;;15.90;1.00;;;;;;5074224;28;20468;-68
2022/10/05 09:30:03;;;;;;;11.43;8.03;;;16.00;1.00;;;;;;5090174;28;20412;-66
2022/10/05 09:32:56;;;;;;;10.53;8.07;;;16.00;1.00;;;;;;5074464;28;20748;-70
2022/10/05 09:35:58;;;;;;;10.10;8.40;;;16.00;1.00;;;;;;5073687;28;20436;-66
2022/10/05 09:39:01;;;;;;;10.37;7.03;;;16.00;1.00;;;;;;5090046;28;20404;-70
2022/10/05 09:41:39;;;;;;;11.57;7.30;;;16.00;1.00;;;;;;5073825;28;20408;-71
2022/10/05 09:44:32;;;;;;;10.07;8.00;;;16.10;1.00;;;;;;5073321;28;20865;-70
2022/10/05 09:47:03;;;;;;;11.93;7.30;;;16.10;1.00;;;;;;5074051;28;20937;-65
2022/10/05 09:50:16;;;;;;;9.90;6.40;;;16.10;1.00;;;;;;5074445;28;20392;-70
2022/10/05 09:53:06;;;;;;;13.70;8.23;;;16.10;1.00;;;;;;5012510;28;20502;-69
2022/10/05 09:55:31;;;;;;;10.43;8.27;;;16.20;1.00;;;;;;5073592;28;20417;-69
2022/10/05 09:58:10;;;;;;;10.07;7.47;;;16.20;1.00;;;;;;5073145;28;21070;-64
2022/10/05 10:00:46;;;;;;;7.90;7.07;;;16.10;1.00;;;;;;5073564;28;20166;-69
2022/10/05 10:03:47;;;;;;;9.73;8.00;;;16.20;1.00;;;;;;5074170;28;20460;-65
2022/10/05 10:06:31;;;;;;;9.63;7.00;;;16.20;1.00;;;;;;5070832;28;20443;-72
2022/10/05 10:09:29;;;;;;;12.47;7.50;;;16.30;1.00;;;;;;5074091;28;20412;-66
2022/10/05 10:12:22;;;;;;;9.67;7.03;;;16.40;9.40;;;;;;5019114;28;20761;-69
2022/10/05 10:15:17;;;;;;;8.70;7.80;;;16.40;1.00;;;;;;5071653;28;20917;-69
2022/10/05 10:18:03;;;;;;;10.40;9.30;;;16.40;1.00;;;;;;5045880;28;20424;-69
2022/10/05 10:20:45;;;;;;;15.33;8.40;;;16.40;1.00;;;;;;5089707;28;20408;-70
2022/10/05 10:23:21;;;;;;;10.90;8.50;;;16.40;1.00;;;;;;5073606;28;20444;-65
2022/10/05 10:26:05;;;;;;;13.53;8.67;;;16.50;1.00;;;;;;5073109;28;20454;-65
2022/10/05 10:29:02;;;;;;;10.50;7.27;;;16.40;1.00;;;;;;5073887;28;20388;-69
2022/10/05 10:32:01;;;;;;;9.90;7.60;;;16.50;1.00;;;;;;5073808;28;20462;-72
2022/10/05 10:34:48;;;;;;;17.83;7.20;;;16.50;1.00;;;;;;5072624;28;20378;-68
2022/10/05 10:37:33;;;;;;;10.93;8.30;;;16.30;1.00;;;;;;5073624;28;20404;-66
2022/10/05 10:40:25;;;;;;;18.33;9.50;;;16.30;1.00;;;;;;5072319;28;20404;-70
2022/10/05 10:43:25;;;;;;;9.50;8.43;;;16.30;1.00;;;;;;5089026;28;20456;-70
2022/10/05 10:46:24;;;;;;;11.27;8.87;;;16.40;1.00;;;;;;5073057;28;20417;-66
2022/10/05 10:49:00;;;;;;;16.83;8.53;;;16.50;1.00;;;;;;5073394;28;20479;-66
2022/10/05 10:51:59;;;;;;;7.97;7.17;;;16.50;1.00;;;;;;5072971;28;20397;-66
2022/10/05 10:54:58;;;;;;;12.63;8.20;;;16.50;1.00;;;;;;5072799;28;20901;-65
2022/10/05 10:57:41;;;;;;;9.93;8.70;;;16.60;1.00;;;;;;5073311;28;20750;-72
2022/10/05 11:00:07;;;;;;;8.20;7.27;;;16.50;1.00;;;;;;5072317;28;20411;-66
2022/10/05 11:02:36;;;;;;;11.20;8.40;;;16.40;1.00;;;;;;5073230;28;20448;-70
2022/10/05 11:05:17;;;;;;;9.83;8.80;;;16.40;1.00;;;;;;5071112;28;20186;-71
2022/10/05 11:07:51;;;;;;;10.07;8.70;;;16.50;1.00;;;;;;5073010;28;20430;-71
2022/10/05 11:10:59;;;;;;;12.93;8.10;;;16.50;1.00;;;;;;5073210;28;20834;-67
2022/10/05 11:14:04;;;;;;;8.73;7.93;;;16.50;1.00;;;;;;5072064;28;20924;-68
2022/10/05 11:17:08;;;;;;;8.70;6.67;;;16.50;1.00;;;;;;5073222;28;20468;-71
2022/10/05 11:20:08;;;;;;;11.17;8.50;;;16.50;1.00;;;;;;5071497;28;20423;-68
2022/10/05 11:22:51;;;;;;;9.10;7.23;;;16.50;1.00;;;;;;5073006;28;20452;-72
2022/10/05 11:25:52;;;;;;;13.00;8.20;;;16.50;1.00;;;;;;5075001;28;20416;-66
2022/10/05 11:28:18;;;;;;;8.10;7.40;;;16.50;1.00;;;;;;5075732;28;20945;-71
2022/10/05 11:31:09;;;;;;;7.70;6.87;;;16.50;1.00;;;;;;5075848;28;20393;-72
2022/10/05 11:33:59;;;;;;;7.37;6.27;;;16.40;1.00;;;;;;5076661;28;20162;-76
2022/10/05 11:37:14;;;;;;;5.60;5.10;;;16.20;1.00;;;;;;5076842;28;20428;-68
2022/10/05 11:40:11;;;;;;;8.23;5.97;;;16.30;1.00;;;;;;5050755;28;20444;-74
2022/10/05 11:43:22;;;;;;;6.93;5.50;;;16.20;1.00;;;;;;5076843;28;20461;-70
2022/10/05 11:45:50;;;;;;;8.77;6.57;;;16.20;1.00;;;;;;5074458;28;20435;-67
2022/10/05 11:48:24;;;;;;;7.07;6.17;;;16.30;1.00;;;;;;5076860;28;20392;-72
2022/10/05 11:50:56;;;;;;;6.10;5.60;;;16.30;1.00;;;;;;5076655;28;20427;-67
2022/10/05 11:53:44;;;;;;;8.03;5.33;;;16.30;1.00;;;;;;5076415;28;20404;-71
2022/10/05 11:56:30;;;;;;;8.50;6.10;;;16.30;1.00;;;;;;5076436;28;20433;-70
2022/10/05 11:59:03;;;;;;;5.50;5.00;;;16.30;1.00;;;;;;5075433;28;20457;-70
2022/10/05 12:02:03;;;;;;;6.37;5.77;;;16.30;1.00;;;;;;5074546;28;20383;-68
2022/10/05 12:04:49;;;;;;;10.40;5.87;;;16.40;1.00;;;;;;5052889;28;20475;-71
2022/10/05 12:07:41;;;;;;;7.10;6.50;;;16.40;1.00;;;;;;5075343;28;20427;-68
2022/10/05 12:10:31;;;;;;;6.87;6.27;;;16.40;1.00;;;;;;5076496;28;20789;-72
2022/10/05 12:13:12;;;;;;;10.60;6.10;;;16.30;1.00;;;;;;5076354;28;20462;-71
2022/10/05 12:15:56;;;;;;;8.63;6.03;;;16.40;1.00;;;;;;5075557;28;20412;-68
2022/10/05 12:18:55;;;;;;;6.33;5.73;;;16.40;1.00;;;;;;5075118;28;20392;-68
2022/10/05 12:21:33;;;;;;;10.93;7.03;;;16.50;1.00;;;;;;5075835;28;20406;-68
2022/10/05 12:24:26;;;;;;;9.37;7.47;;;16.30;1.00;;;;;;5075384;28;20444;-68
2022/10/05 12:27:04;;;;;;;8.07;7.23;;;16.20;1.00;;;;;;5075412;28;20466;-72
2022/10/05 12:29:43;;;;;;;9.93;8.50;;;16.20;1.00;;;;;;5076012;28;20441;-72
2022/10/05 12:32:23;;;;;;;8.90;8.20;;;16.20;1.00;;;;;;5075937;28;20877;-68
2022/10/05 12:35:21;;;;;;;7.40;6.80;;;16.20;1.00;;;;;;5074703;28;20922;-68
2022/10/05 12:38:00;;;;;;;8.00;6.97;;;16.30;1.00;;;;;;5075841;28;20385;-71
2022/10/05 12:40:55;;;;;;;8.83;7.90;;;16.30;1.00;;;;;;5075469;28;20453;-71
2022/10/05 12:43:33;;;;;;;8.67;7.87;;;16.20;1.00;;;;;;5067204;28;20452;-66
2022/10/05 12:46:16;;;;;;;8.43;7.63;;;16.30;1.00;;;;;;5075056;28;20439;-68
2022/10/05 12:49:19;;;;;;;8.10;7.30;;;16.30;1.00;;;;;;5075685;28;20407;-69
2022/10/05 12:51:54;;;;;;;8.70;7.83;;;16.30;1.00;;;;;;5074244;28;20885;-73
2022/10/05 12:54:20;;;;;;;12.60;8.40;;;16.20;1.00;;;;;;5073518;28;20396;-68
2022/10/05 12:56:45;;;;;;;10.33;8.90;;;16.20;1.00;;;;;;5074389;28;20754;-67
2022/10/05 12:59:14;;;;;;;9.50;8.20;;;16.20;1.00;;;;;;5073908;28;20202;-68
2022/10/05 13:01:41;;;;;;;9.77;7.83;;;16.20;1.00;;;;;;5075373;28;20201;-69
2022/10/05 13:04:20;;;;;;;7.70;7.03;;;16.20;1.00;;;;;;5074312;28;20451;-69
2022/10/05 13:07:13;;;;;;;7.37;6.60;;;16.20;1.00;;;;;;5073920;28;20432;-73
2022/10/05 13:09:53;;;;;;;13.67;9.20;;;16.20;1.00;;;;;;5075167;28;20531;-66
2022/10/05 13:12:28;;;;;;;8.37;7.57;;;16.20;1.00;;;;;;5073992;28;20413;-68
2022/10/05 13:15:25;;;;;;;8.73;7.93;;;16.10;1.00;;;;;;5074593;28;20477;-70
2022/10/05 13:18:15;;;;;;;8.37;7.67;;;16.10;1.00;;;;;;5075017;28;20408;-72
2022/10/05 13:20:45;;;;;;;14.27;7.90;;;16.20;1.00;;;;;;5075088;28;20458;-71
2022/10/05 13:23:13;;;;;;;9.60;8.60;;;16.10;1.00;;;;;;5073754;28;20456;-74
2022/10/05 13:26:06;;;;;;;8.63;7.73;;;16.20;1.00;;;;;;5074136;28;20420;-70
2022/10/05 13:29:01;;;;;;;9.00;8.20;;;16.10;1.00;;;;;;5068388;28;20416;-67
2022/10/05 13:31:41;;;;;;;9.07;8.10;;;16.00;1.00;;;;;;5074893;28;20426;-72
2022/10/05 13:34:07;;;;;;;8.70;7.90;;;16.10;1.00;;;;;;5073491;28;20441;-69
2022/10/05 13:36:49;;;;;;;9.53;8.60;;;16.10;1.00;;;;;;5074569;28;20420;-66
2022/10/05 13:39:39;;;;;;;8.03;7.33;;;16.10;1.00;;;;;;5074648;28;20594;-65
2022/10/05 13:42:16;;;;;;;9.07;8.27;;;16.10;1.00;;;;;;5074597;28;20393;-66
2022/10/05 13:44:59;;;;;;;9.07;8.00;;;16.20;1.00;;;;;;5073683;28;20412;-68
2022/10/05 13:47:28;;;;;;;10.10;9.03;;;16.20;1.00;;;;;;5073661;28;20396;-73
2022/10/05 13:50:16;;;;;;;9.40;8.60;;;16.10;1.00;;;;;;5074121;28;20397;-69
2022/10/05 13:52:50;;;;;;;9.10;8.20;;;16.10;1.00;;;;;;5073801;28;20396;-68
2022/10/05 13:55:28;;;;;;;9.60;8.80;;;16.10;1.00;;;;;;5073148;28;20470;-69
2022/10/05 13:58:31;;;;;;;9.93;9.00;;;16.10;1.00;;;;;;5073846;28;20984;-70
2022/10/05 14:01:28;;;;;;;9.40;8.50;;;16.00;1.00;;;;;;5073882;28;20408;-68
2022/10/05 14:04:15;;;;;;;9.63;8.63;;;16.00;1.00;;;;;;5072953;28;20441;-70
2022/10/05 14:06:43;;;;;;;9.50;8.50;;;16.00;1.00;;;;;;5073376;28;20724;-66
2022/10/05 14:09:27;;;;;;;8.83;8.07;;;16.00;1.00;;;;;;5073814;28;20400;-69
2022/10/05 14:12:11;;;;;;;10.00;9.10;;;15.90;1.00;;;;;;5074059;28;20400;-70
2022/10/05 14:14:49;;;;;;;8.07;7.37;;;15.90;1.00;;;;;;5072734;28;20399;-68
2022/10/05 14:17:51;;;;;;;9.07;8.27;;;16.00;1.00;;;;;;5073597;28;20408;-68
2022/10/05 14:20:36;;;;;;;8.43;7.80;;;16.10;1.00;;;;;;5011775;28;20426;-71